TimeEST,TemperatureF,Dew PointF,Humidity,Sea Level PressureIn,VisibilityMPH,Wind Direction,Wind SpeedMPH,Gust SpeedMPH,PrecipitationIn,Events,Conditions,WindDirDegrees,DateUTC
12:53 AM,41.0,30.9,67,30.19,10.0,Calm,Calm,-,N/A,,Clear,0,2012-11-20 05:53:00
1:53 AM,37.0,32.0,82,30.20,10.0,Calm,Calm,-,N/A,,Clear,0,2012-11-20 06:53:00
2:53 AM,36.0,30.9,82,30.20,10.0,East,3.5,-,N/A,,Clear,80,2012-11-20 07:53:00
3:53 AM,37.0,30.9,79,30.18,9.0,Calm,Calm,-,N/A,,Clear,0,2012-11-20 08:53:00
4:53 AM,37.0,30.9,79,30.16,8.0,Calm,Calm,-,N/A,,Clear,0,2012-11-20 09:53:00
5:53 AM,37.0,32.0,82,30.17,9.0,Calm,Calm,-,N/A,,Clear,0,2012-11-20 10:53:00
6:53 AM,35.1,32.0,89,30.18,8.0,Calm,Calm,-,N/A,,Clear,0,2012-11-20 11:53:00
7:53 AM,34.0,32.0,92,30.21,5.0,Calm,Calm,-,N/A,,Clear,0,2012-11-20 12:53:00
8:53 AM,37.0,34.0,89,30.19,7.0,Calm,Calm,-,N/A,,Clear,0,2012-11-20 13:53:00
9:53 AM,43.0,36.0,76,30.19,8.0,Calm,Calm,-,N/A,,Clear,0,2012-11-20 14:53:00
10:53 AM,46.0,35.1,66,30.19,10.0,Calm,Calm,-,N/A,,Clear,0,2012-11-20 15:53:00
11:53 AM,48.0,34.0,58,30.16,10.0,Calm,Calm,-,N/A,,Partly Cloudy,0,2012-11-20 16:53:00
12:53 PM,50.0,34.0,54,30.14,10.0,NNW,3.5,-,N/A,,Overcast,330,2012-11-20 17:53:00
1:53 PM,54.0,32.0,43,30.12,10.0,Calm,Calm,-,N/A,,Partly Cloudy,0,2012-11-20 18:53:00
2:53 PM,53.1,28.9,40,30.11,10.0,Calm,Calm,-,N/A,,Partly Cloudy,0,2012-11-20 19:53:00
3:53 PM,53.1,28.0,38,30.11,10.0,Calm,Calm,-,N/A,,Clear,0,2012-11-20 20:53:00
4:53 PM,52.0,28.9,41,30.12,10.0,Calm,Calm,-,N/A,,Mostly Cloudy,0,2012-11-20 21:53:00
5:53 PM,50.0,30.0,46,30.12,10.0,Calm,Calm,-,N/A,,Partly Cloudy,0,2012-11-20 22:53:00
6:53 PM,50.0,30.0,46,30.14,10.0,Calm,Calm,-,N/A,,Scattered Clouds,0,2012-11-20 23:53:00
7:53 PM,46.0,30.0,54,30.16,10.0,Calm,Calm,-,N/A,,Overcast,0,2012-11-21 00:53:00
8:53 PM,46.0,30.9,56,30.17,10.0,Calm,Calm,-,N/A,,Overcast,0,2012-11-21 01:53:00
9:53 PM,46.0,30.9,56,30.16,10.0,SSE,3.5,-,N/A,,Mostly Cloudy,150,2012-11-21 02:53:00
10:53 PM,41.0,32.0,70,30.16,10.0,Calm,Calm,-,N/A,,Clear,0,2012-11-21 03:53:00
11:53 PM,43.0,30.9,62,30.16,10.0,Calm,Calm,-,N/A,,Partly Cloudy,0,2012-11-21 04:53:00